createdAt,value
2017-12-16T00:00:40.390Z,2.90
2017-12-16T00:03:08.761Z,2.80
2017-12-16T00:05:37.084Z,2.70
2017-12-16T00:08:04.716Z,2.70
2017-12-16T00:10:32.301Z,2.70
2017-12-16T00:12:59.874Z,2.70
2017-12-16T00:15:27.558Z,2.70
2017-12-16T00:17:55.144Z,2.70
2017-12-16T00:20:22.713Z,2.60
2017-12-16T00:22:50.299Z,2.60
2017-12-16T00:25:17.879Z,2.70
2017-12-16T00:27:45.506Z,2.60
2017-12-16T00:30:13.127Z,2.70
2017-12-16T00:32:41.491Z,2.50
2017-12-16T00:35:09.058Z,2.50
2017-12-16T00:37:37.583Z,2.50
2017-12-16T00:40:05.164Z,2.50
2017-12-16T00:42:32.800Z,2.50
2017-12-16T00:45:00.401Z,2.50
2017-12-16T00:47:27.987Z,2.60
2017-12-16T00:49:56.427Z,2.60
2017-12-16T00:52:23.984Z,2.60
2017-12-16T00:54:51.552Z,2.60
2017-12-16T00:57:19.156Z,2.60
2017-12-16T00:59:46.730Z,2.60
2017-12-16T01:02:14.295Z,2.40
2017-12-16T01:04:41.876Z,2.30
2017-12-16T01:07:09.432Z,2.20
2017-12-16T01:09:37.022Z,2.10
2017-12-16T01:12:04.585Z,2.10
2017-12-16T01:14:32.927Z,2.20
2017-12-16T01:17:00.488Z,2.20
2017-12-16T01:19:28.226Z,2.00
2017-12-16T01:21:55.960Z,2.10
2017-12-16T01:24:24.363Z,2.20
2017-12-16T01:26:52.084Z,2.20
2017-12-16T01:29:20.500Z,2.30
2017-12-16T01:31:48.075Z,2.30
2017-12-16T01:34:27.695Z,2.50
2017-12-16T01:37:07.240Z,2.50
2017-12-16T01:39:34.915Z,2.50
2017-12-16T01:42:02.561Z,2.50
2017-12-16T01:44:30.173Z,2.40
2017-12-16T01:46:57.738Z,2.40
2017-12-16T01:49:26.158Z,2.70
2017-12-16T01:51:54.558Z,2.70
2017-12-16T01:54:22.122Z,2.70
2017-12-16T01:56:49.756Z,2.70
2017-12-16T01:59:17.415Z,2.70
2017-12-16T02:01:44.990Z,2.80
2017-12-16T02:04:12.555Z,2.80
2017-12-16T02:06:40.150Z,2.80
2017-12-16T02:09:08.476Z,2.80
2017-12-16T02:11:36.042Z,2.80
2017-12-16T02:14:03.647Z,2.80
2017-12-16T02:16:31.999Z,2.80
2017-12-16T02:18:59.622Z,2.80
2017-12-16T02:21:27.282Z,2.80
2017-12-16T02:23:54.941Z,2.80
2017-12-16T02:26:22.601Z,2.80
2017-12-16T02:28:50.163Z,2.80
2017-12-16T02:31:17.771Z,2.80
2017-12-16T02:33:45.329Z,2.90
2017-12-16T02:36:13.734Z,3.10
2017-12-16T02:38:41.355Z,3.00
2017-12-16T02:41:09.700Z,3.10
2017-12-16T02:43:37.275Z,3.10
2017-12-16T02:46:04.842Z,3.10
2017-12-16T02:48:32.428Z,3.00
2017-12-16T02:51:00.770Z,3.00
2017-12-16T02:53:28.468Z,3.00
2017-12-16T02:55:56.884Z,2.90
2017-12-16T02:58:24.445Z,2.90
2017-12-16T03:00:52.026Z,2.80
2017-12-16T03:03:19.609Z,2.80
2017-12-16T03:05:47.317Z,2.90
2017-12-16T03:08:14.866Z,2.80
2017-12-16T03:10:42.539Z,2.70
2017-12-16T03:13:10.119Z,2.80
2017-12-16T03:15:37.691Z,3.00
2017-12-16T03:18:05.275Z,3.10
2017-12-16T03:20:33.596Z,3.00
2017-12-16T03:23:01.202Z,3.00
2017-12-16T03:25:28.772Z,2.90
2017-12-16T03:27:57.142Z,2.80
2017-12-16T03:30:24.779Z,2.80
2017-12-16T03:32:52.406Z,2.60
2017-12-16T03:35:20.051Z,2.60
2017-12-16T03:37:47.614Z,2.70
2017-12-16T03:40:15.190Z,2.90
2017-12-16T03:42:42.767Z,3.00
2017-12-16T03:45:10.367Z,3.00
2017-12-16T03:47:38.779Z,3.00
2017-12-16T03:50:06.440Z,3.00
2017-12-16T03:52:34.150Z,3.00
2017-12-16T03:55:01.711Z,2.90
2017-12-16T03:57:30.199Z,3.10
2017-12-16T03:59:58.519Z,3.10
2017-12-16T04:02:26.176Z,3.20
2017-12-16T04:04:53.754Z,3.30
2017-12-16T04:07:21.344Z,3.30
2017-12-16T04:09:48.940Z,3.30
2017-12-16T04:12:16.493Z,3.30
2017-12-16T04:14:44.088Z,3.30
2017-12-16T04:17:11.746Z,3.30
2017-12-16T04:19:39.291Z,3.30
2017-12-16T04:22:06.855Z,3.40
2017-12-16T04:24:34.614Z,3.40
2017-12-16T04:27:02.244Z,3.40
2017-12-16T04:29:29.946Z,3.50
2017-12-16T04:31:57.531Z,3.40
2017-12-16T04:34:25.086Z,3.40
2017-12-16T04:36:52.674Z,3.50
2017-12-16T04:39:21.023Z,3.50
2017-12-16T04:41:48.718Z,3.50
2017-12-16T04:44:16.345Z,3.40
2017-12-16T04:46:43.960Z,3.30
2017-12-16T04:49:11.643Z,3.20
2017-12-16T04:51:39.247Z,3.20
2017-12-16T04:54:07.661Z,3.20
2017-12-16T04:56:35.215Z,3.20
2017-12-16T04:59:02.855Z,3.20
2017-12-16T05:01:30.411Z,3.20
2017-12-16T05:03:58.119Z,3.10
2017-12-16T05:06:25.691Z,3.20
2017-12-16T05:08:53.251Z,3.20
2017-12-16T05:11:20.862Z,3.20
2017-12-16T05:13:48.468Z,3.20
2017-12-16T05:16:16.183Z,3.30
2017-12-16T05:18:43.819Z,3.30
2017-12-16T05:21:12.158Z,3.20
2017-12-16T05:23:39.784Z,3.20
2017-12-16T05:26:07.344Z,3.20
2017-12-16T05:28:34.895Z,3.10
2017-12-16T05:31:02.619Z,3.20
2017-12-16T05:33:30.941Z,3.20
2017-12-16T05:35:58.723Z,3.20
2017-12-16T05:38:26.339Z,3.20
2017-12-16T05:40:54.806Z,2.90
2017-12-16T05:43:23.339Z,3.00
2017-12-16T05:45:50.893Z,3.00
2017-12-16T05:48:18.498Z,3.20
2017-12-16T05:50:46.827Z,3.00
2017-12-16T05:53:14.485Z,2.90
2017-12-16T05:55:42.251Z,2.90
2017-12-16T05:58:09.844Z,2.90
2017-12-16T06:00:37.434Z,2.90
2017-12-16T06:03:05.762Z,2.80
2017-12-16T06:05:33.353Z,2.80
2017-12-16T06:08:00.960Z,2.90
2017-12-16T06:10:28.535Z,2.90
2017-12-16T06:12:56.094Z,2.90
2017-12-16T06:15:23.946Z,2.90
2017-12-16T06:17:51.526Z,2.90
2017-12-16T06:20:19.118Z,2.90
2017-12-16T06:22:47.447Z,2.80
2017-12-16T06:25:15.146Z,2.80
2017-12-16T06:27:42.755Z,2.80
2017-12-16T06:30:10.339Z,2.80
2017-12-16T06:32:37.973Z,2.90
2017-12-16T06:35:05.562Z,2.90
2017-12-16T06:37:33.241Z,2.90
2017-12-16T06:40:00.818Z,2.90
2017-12-16T06:42:29.147Z,3.00
2017-12-16T06:44:56.735Z,2.90
2017-12-16T06:47:24.297Z,3.00
2017-12-16T06:49:51.886Z,3.00
2017-12-16T06:52:19.451Z,3.00
2017-12-16T06:54:47.008Z,2.90
2017-12-16T06:57:14.610Z,2.90
2017-12-16T06:59:42.166Z,2.80
2017-12-16T07:02:09.747Z,2.60
2017-12-16T07:04:37.319Z,2.40
2017-12-16T07:07:05.682Z,2.50
2017-12-16T07:09:33.248Z,2.50
2017-12-16T07:12:00.803Z,2.50
2017-12-16T07:14:28.404Z,2.50
2017-12-16T07:16:55.954Z,2.50
2017-12-16T07:19:23.626Z,2.50
2017-12-16T07:21:51.296Z,2.50
2017-12-16T07:24:18.851Z,2.60
2017-12-16T07:26:46.439Z,2.60
2017-12-16T07:29:14.003Z,2.60
2017-12-16T07:31:41.608Z,2.60
2017-12-16T07:34:09.170Z,2.70
2017-12-16T07:36:36.786Z,2.70
2017-12-16T07:39:04.351Z,2.70
2017-12-16T07:41:32.666Z,2.70
2017-12-16T07:44:00.253Z,2.70
2017-12-16T07:46:27.818Z,2.70
2017-12-16T07:48:55.448Z,2.70
2017-12-16T07:51:23.121Z,2.80
2017-12-16T07:53:50.773Z,2.80
2017-12-16T07:56:18.433Z,2.70
2017-12-16T07:58:46.013Z,2.70
2017-12-16T08:01:13.576Z,2.70
2017-12-16T08:03:41.179Z,2.70
2017-12-16T08:06:09.586Z,2.60
2017-12-16T08:08:37.293Z,2.60
2017-12-16T08:11:04.855Z,2.60
2017-12-16T08:13:32.451Z,2.60
2017-12-16T08:16:00.262Z,2.50
2017-12-16T08:18:27.889Z,2.50
2017-12-16T08:20:55.548Z,2.40
2017-12-16T08:23:23.107Z,2.40
2017-12-16T08:25:50.818Z,2.40
2017-12-16T08:28:18.387Z,2.30
2017-12-16T08:30:46.756Z,2.20
2017-12-16T08:33:14.386Z,2.10
2017-12-16T08:35:42.071Z,2.00
2017-12-16T08:38:09.696Z,2.00
2017-12-16T08:40:37.255Z,2.00
2017-12-16T08:43:04.866Z,2.20
2017-12-16T08:45:33.345Z,2.30
2017-12-16T08:48:01.707Z,2.40
2017-12-16T08:50:29.274Z,2.50
2017-12-16T08:52:56.856Z,2.50
2017-12-16T08:55:24.443Z,2.40
2017-12-16T08:57:52.015Z,2.50
2017-12-16T09:00:19.572Z,2.50
2017-12-16T09:02:47.163Z,2.40
2017-12-16T09:05:14.718Z,2.40
2017-12-16T09:07:42.358Z,2.40
2017-12-16T09:10:09.915Z,2.40
2017-12-16T09:12:37.532Z,2.40
2017-12-16T09:15:05.208Z,2.50
2017-12-16T09:17:32.767Z,2.40
2017-12-16T09:20:00.336Z,2.30
2017-12-16T09:22:27.931Z,2.50
2017-12-16T09:24:55.524Z,2.40
2017-12-16T09:27:23.099Z,2.40
2017-12-16T09:29:50.660Z,2.50
2017-12-16T09:32:18.323Z,2.50
2017-12-16T09:34:45.884Z,2.50
2017-12-16T09:37:13.442Z,2.50
2017-12-16T09:39:41.084Z,2.60
2017-12-16T09:42:08.650Z,2.60
2017-12-16T09:44:36.213Z,2.60
2017-12-16T09:47:03.796Z,2.70
2017-12-16T09:49:31.356Z,2.70
2017-12-16T09:51:58.954Z,2.80
2017-12-16T09:54:27.282Z,2.80
2017-12-16T09:56:54.918Z,2.80
2017-12-16T09:59:22.480Z,2.90
2017-12-16T10:01:50.035Z,2.90
2017-12-16T10:04:17.654Z,2.90
2017-12-16T10:06:45.361Z,2.80
2017-12-16T10:09:12.926Z,2.80
2017-12-16T10:11:40.520Z,2.80
2017-12-16T10:14:08.101Z,2.80
2017-12-16T10:16:36.642Z,2.90
2017-12-16T10:19:04.199Z,2.90
2017-12-16T10:21:31.771Z,2.90
2017-12-16T10:23:59.378Z,2.90
2017-12-16T10:26:26.974Z,3.00
2017-12-16T10:28:54.578Z,3.00
2017-12-16T10:31:23.094Z,3.00
2017-12-16T10:33:50.769Z,2.90
2017-12-16T10:36:18.418Z,3.00
2017-12-16T10:38:46.019Z,2.90
2017-12-16T10:41:13.607Z,2.90
2017-12-16T10:43:41.950Z,2.90
2017-12-16T10:46:09.683Z,2.90
2017-12-16T10:48:37.266Z,3.00
2017-12-16T10:51:04.894Z,3.10
2017-12-16T10:53:32.537Z,3.00
2017-12-16T10:56:00.115Z,3.10
2017-12-16T10:58:27.710Z,3.10
2017-12-16T11:00:55.306Z,3.10
2017-12-16T11:03:23.671Z,3.10
2017-12-16T11:05:52.162Z,3.10
2017-12-16T11:08:19.744Z,3.10
2017-12-16T11:10:47.395Z,3.20
2017-12-16T11:13:15.090Z,3.10
2017-12-16T11:15:42.662Z,3.10
2017-12-16T11:18:10.267Z,3.30
2017-12-16T11:20:37.839Z,3.30
2017-12-16T11:23:05.505Z,3.30
2017-12-16T11:25:33.190Z,3.40
2017-12-16T11:28:00.784Z,3.40
2017-12-16T11:30:29.203Z,3.50
2017-12-16T11:32:56.772Z,3.50
2017-12-16T11:35:24.382Z,3.50
2017-12-16T11:37:52.798Z,3.70
2017-12-16T11:40:20.404Z,3.70
2017-12-16T11:42:47.971Z,3.60
2017-12-16T11:45:15.559Z,3.40
2017-12-16T11:47:43.150Z,3.60
2017-12-16T11:50:10.754Z,3.50
2017-12-16T11:52:39.154Z,3.60
2017-12-16T11:55:06.787Z,3.60
2017-12-16T11:57:35.212Z,3.50
2017-12-16T12:00:02.800Z,3.50
2017-12-16T12:02:30.398Z,3.60
2017-12-16T12:04:58.761Z,3.60
2017-12-16T12:07:26.334Z,3.60
2017-12-16T12:09:54.863Z,3.90
2017-12-16T12:12:22.433Z,3.90
2017-12-16T12:14:50.096Z,3.90
2017-12-16T12:17:17.791Z,3.90
2017-12-16T12:19:46.122Z,3.90
2017-12-16T12:22:13.743Z,3.90
2017-12-16T12:24:41.316Z,4.00
2017-12-16T12:27:08.945Z,4.00
2017-12-16T12:29:37.356Z,3.90
2017-12-16T12:32:04.926Z,3.90
2017-12-16T12:34:32.575Z,3.90
2017-12-16T12:37:00.250Z,4.00
2017-12-16T12:39:27.850Z,4.10
2017-12-16T12:41:55.467Z,4.30
2017-12-16T12:44:23.033Z,4.30
2017-12-16T12:46:50.603Z,4.20
2017-12-16T12:49:18.234Z,4.00
2017-12-16T12:51:45.923Z,4.00
2017-12-16T12:54:13.526Z,3.90
2017-12-16T12:56:41.130Z,4.40
2017-12-16T12:59:08.809Z,5.60
2017-12-16T13:01:36.409Z,5.20
2017-12-16T13:04:04.790Z,4.80
2017-12-16T13:06:33.144Z,4.90
2017-12-16T13:09:00.790Z,4.90
2017-12-16T13:11:28.397Z,4.90
2017-12-16T13:13:55.951Z,4.50
2017-12-16T13:16:23.556Z,4.70
2017-12-16T13:18:51.207Z,4.90
2017-12-16T13:21:18.767Z,4.20
2017-12-16T13:23:46.375Z,4.40
2017-12-16T13:26:14.719Z,4.50
2017-12-16T13:28:42.336Z,4.50
2017-12-16T13:31:09.944Z,4.80
2017-12-16T13:33:37.490Z,5.20
2017-12-16T13:36:05.127Z,5.10
2017-12-16T13:38:32.769Z,5.20
2017-12-16T13:41:00.335Z,5.40
2017-12-16T13:43:27.920Z,5.50
2017-12-16T13:45:55.583Z,5.40
2017-12-16T13:48:23.207Z,4.70
2017-12-16T13:50:50.770Z,4.70
2017-12-16T13:53:18.351Z,4.90
2017-12-16T13:55:45.944Z,5.10
2017-12-16T13:58:13.492Z,5.40
2017-12-16T14:00:41.071Z,5.70
2017-12-16T14:03:09.412Z,4.80
2017-12-16T14:05:37.040Z,4.80
2017-12-16T14:08:04.656Z,4.70
2017-12-16T14:10:33.070Z,5.00
2017-12-16T14:13:00.815Z,5.10
2017-12-16T14:15:29.218Z,4.70
2017-12-16T14:17:56.799Z,4.60
2017-12-16T14:20:24.406Z,4.80
2017-12-16T14:22:52.818Z,4.50
2017-12-16T14:25:20.397Z,4.50
2017-12-16T14:27:47.967Z,4.30
2017-12-16T14:30:15.576Z,4.20
2017-12-16T14:32:43.254Z,4.10
2017-12-16T14:35:10.852Z,4.20
2017-12-16T14:37:38.586Z,4.20
2017-12-16T14:40:06.174Z,4.20
2017-12-16T14:42:33.860Z,4.00
2017-12-16T14:45:02.219Z,4.20
2017-12-16T14:47:29.822Z,4.10
2017-12-16T14:49:57.397Z,4.20
2017-12-16T14:52:25.049Z,4.00
2017-12-16T14:54:52.618Z,3.90
2017-12-16T14:57:20.203Z,3.90
2017-12-16T14:59:47.879Z,3.80
2017-12-16T15:02:15.462Z,3.80
2017-12-16T15:04:43.059Z,3.90
2017-12-16T15:07:10.684Z,3.80
2017-12-16T15:09:38.236Z,3.70
2017-12-16T15:12:06.595Z,3.70
2017-12-16T15:14:34.404Z,3.60
2017-12-16T15:17:02.008Z,3.40
2017-12-16T15:19:29.569Z,3.20
2017-12-16T15:21:57.238Z,2.90
2017-12-16T15:24:24.802Z,3.00
2017-12-16T15:26:53.185Z,2.30
2017-12-16T15:29:21.522Z,2.30
2017-12-16T15:31:49.096Z,2.30
2017-12-16T15:34:16.709Z,2.40
2017-12-16T15:36:44.297Z,2.40
2017-12-16T15:39:11.958Z,2.60
2017-12-16T15:41:39.529Z,2.70
2017-12-16T15:44:07.097Z,2.70
2017-12-16T15:46:34.762Z,2.70
2017-12-16T15:49:02.351Z,2.80
2017-12-16T15:51:30.190Z,2.80
2017-12-16T15:53:58.613Z,2.90
2017-12-16T15:56:26.251Z,2.90
2017-12-16T15:58:53.863Z,2.90
2017-12-16T16:01:21.438Z,2.80
2017-12-16T16:03:49.058Z,2.70
2017-12-16T16:06:16.703Z,2.80
2017-12-16T16:08:44.380Z,2.60
2017-12-16T16:11:11.959Z,2.70
2017-12-16T16:13:39.522Z,2.70
2017-12-16T16:16:07.115Z,2.60
2017-12-16T16:18:35.447Z,2.90
2017-12-16T16:21:03.107Z,2.90
2017-12-16T16:23:30.736Z,2.90
2017-12-16T16:25:58.312Z,3.10
2017-12-16T16:28:25.911Z,3.20
2017-12-16T16:30:53.559Z,3.20
2017-12-16T16:33:21.288Z,3.20
2017-12-16T16:35:48.946Z,3.10
2017-12-16T16:38:16.520Z,3.10
2017-12-16T16:40:44.129Z,3.10
2017-12-16T16:43:12.476Z,3.00
2017-12-16T16:45:40.080Z,3.00
2017-12-16T16:48:07.674Z,2.90
2017-12-16T16:50:35.291Z,3.00
2017-12-16T16:53:03.676Z,3.10
2017-12-16T16:55:31.243Z,3.10
2017-12-16T16:57:58.927Z,3.10
2017-12-16T17:00:26.516Z,3.00
2017-12-16T17:02:54.147Z,3.00
2017-12-16T17:05:21.720Z,3.10
2017-12-16T17:07:49.295Z,3.10
2017-12-16T17:10:17.057Z,3.00
2017-12-16T17:12:44.615Z,3.00
2017-12-16T17:15:12.171Z,3.10
2017-12-16T17:17:40.574Z,3.00
2017-12-16T17:20:08.948Z,3.00
2017-12-16T17:22:37.313Z,2.90
2017-12-16T17:25:05.002Z,2.90
2017-12-16T17:27:32.623Z,2.90
2017-12-16T17:30:00.205Z,2.90
2017-12-16T17:32:28.562Z,3.00
2017-12-16T17:34:56.159Z,3.00
2017-12-16T17:37:23.723Z,3.00
2017-12-16T17:39:51.347Z,3.00
2017-12-16T17:42:19.794Z,3.10
2017-12-16T17:44:47.398Z,3.10
2017-12-16T17:47:15.902Z,3.00
2017-12-16T17:49:43.472Z,3.00
2017-12-16T17:52:11.163Z,3.00
2017-12-16T17:54:38.796Z,3.10
2017-12-16T17:57:06.368Z,3.10
2017-12-16T17:59:33.968Z,3.00
2017-12-16T18:02:01.555Z,3.10
2017-12-16T18:04:29.136Z,3.10
2017-12-16T18:06:56.755Z,3.10
2017-12-16T18:09:25.075Z,3.10
2017-12-16T18:11:52.652Z,3.10
2017-12-16T18:14:20.279Z,3.10
2017-12-16T18:16:47.841Z,3.00
2017-12-16T18:19:15.439Z,3.00
2017-12-16T18:21:43.004Z,3.00
2017-12-16T18:24:10.574Z,3.00
2017-12-16T18:26:39.054Z,2.90
2017-12-16T18:29:07.446Z,2.90
2017-12-16T18:31:35.085Z,2.80
2017-12-16T18:34:02.734Z,2.90
2017-12-16T18:36:30.438Z,5.30
2017-12-16T18:38:58.019Z,2.90
2017-12-16T18:41:25.705Z,2.90
2017-12-16T18:43:53.305Z,2.90
2017-12-16T18:46:21.631Z,2.80
2017-12-16T18:48:49.227Z,2.80
2017-12-16T18:51:16.851Z,2.80
2017-12-16T18:53:44.495Z,2.80
2017-12-16T18:56:12.079Z,2.80
2017-12-16T18:58:39.708Z,2.80
2017-12-16T19:01:07.297Z,2.80
2017-12-16T19:03:34.952Z,2.80
2017-12-16T19:06:02.548Z,2.80
2017-12-16T19:08:30.149Z,2.70
2017-12-16T19:10:57.705Z,2.70
2017-12-16T19:13:25.291Z,2.70
2017-12-16T19:15:52.859Z,2.70
2017-12-16T19:18:20.466Z,2.70
2017-12-16T19:20:48.808Z,2.80
2017-12-16T19:23:16.473Z,2.70
2017-12-16T19:25:44.079Z,4.60
2017-12-16T19:28:11.740Z,2.80
2017-12-16T19:30:39.307Z,2.80
2017-12-16T19:33:06.943Z,2.80
2017-12-16T19:35:34.624Z,2.80
2017-12-16T19:38:02.200Z,2.90
2017-12-16T19:40:29.827Z,3.00
2017-12-16T19:42:57.431Z,3.00
2017-12-16T19:45:25.019Z,3.00
2017-12-16T19:47:53.548Z,2.90
2017-12-16T19:50:21.216Z,2.90
2017-12-16T19:52:48.896Z,3.00
2017-12-16T19:55:16.479Z,3.00
2017-12-16T19:57:44.979Z,2.90
2017-12-16T20:00:12.555Z,2.90
2017-12-16T20:02:40.139Z,2.90
2017-12-16T20:05:07.775Z,3.00
2017-12-16T20:07:35.367Z,2.90
2017-12-16T20:10:02.918Z,3.00
2017-12-16T20:12:30.515Z,3.00
2017-12-16T20:14:58.855Z,3.00
2017-12-16T20:17:26.492Z,2.90
2017-12-16T20:19:54.069Z,3.00
2017-12-16T20:22:21.729Z,2.90
2017-12-16T20:24:49.299Z,3.00
2017-12-16T20:27:16.943Z,3.00
2017-12-16T20:29:44.586Z,3.00
2017-12-16T20:32:12.222Z,3.00
2017-12-16T20:34:40.628Z,3.00
2017-12-16T20:37:08.285Z,3.00
2017-12-16T20:39:35.895Z,3.00
2017-12-16T20:42:03.446Z,3.00
2017-12-16T20:44:31.086Z,3.00
2017-12-16T20:46:58.826Z,2.90
2017-12-16T20:49:26.419Z,2.90
2017-12-16T20:51:53.984Z,2.80
2017-12-16T20:54:21.548Z,2.80
2017-12-16T20:56:49.160Z,2.70
2017-12-16T20:59:16.727Z,2.70
2017-12-16T21:01:44.346Z,2.60
2017-12-16T21:04:12.679Z,2.50
2017-12-16T21:06:40.278Z,2.50
2017-12-16T21:09:08.807Z,2.50
2017-12-16T21:11:36.483Z,2.40
2017-12-16T21:14:04.108Z,2.40
2017-12-16T21:16:31.658Z,2.50
2017-12-16T21:18:59.214Z,2.50
2017-12-16T21:21:26.817Z,2.60
2017-12-16T21:23:54.407Z,2.50
2017-12-16T21:26:21.968Z,2.50
2017-12-16T21:28:49.571Z,2.50
2017-12-16T21:31:17.127Z,2.60
2017-12-16T21:33:44.744Z,2.60
2017-12-16T21:36:12.447Z,2.60
2017-12-16T21:38:40.088Z,2.60
2017-12-16T21:41:07.703Z,2.60
2017-12-16T21:43:35.328Z,2.60
2017-12-16T21:46:02.911Z,2.60
2017-12-16T21:48:30.646Z,2.60
2017-12-16T21:50:58.207Z,2.60
2017-12-16T21:53:25.778Z,2.60
2017-12-16T21:55:53.366Z,2.70
2017-12-16T21:58:20.987Z,2.70
2017-12-16T22:00:48.587Z,2.70
2017-12-16T22:03:16.163Z,2.70
2017-12-16T22:05:44.578Z,2.60
2017-12-16T22:08:12.167Z,2.60
2017-12-16T22:10:39.735Z,2.60
2017-12-16T22:13:07.325Z,2.60
2017-12-16T22:15:35.671Z,2.60
2017-12-16T22:18:03.266Z,2.60
2017-12-16T22:20:31.601Z,2.60
2017-12-16T22:22:59.186Z,2.60
2017-12-16T22:25:26.787Z,2.60
2017-12-16T22:27:54.510Z,2.50
2017-12-16T22:30:22.863Z,2.60
2017-12-16T22:32:50.449Z,2.60
2017-12-16T22:35:18.786Z,2.60
2017-12-16T22:37:46.382Z,2.60
2017-12-16T22:40:14.736Z,2.50
2017-12-16T22:42:42.361Z,2.50
2017-12-16T22:45:10.022Z,2.60
2017-12-16T22:47:37.676Z,2.50
2017-12-16T22:50:05.339Z,2.60
2017-12-16T22:52:32.891Z,2.60
2017-12-16T22:55:00.548Z,2.60
2017-12-16T22:57:28.109Z,2.50
2017-12-16T22:59:55.679Z,2.50
2017-12-16T23:02:23.329Z,2.50
2017-12-16T23:04:50.971Z,2.60
2017-12-16T23:07:18.536Z,2.50
2017-12-16T23:09:46.276Z,2.60
2017-12-16T23:12:14.633Z,2.60
2017-12-16T23:14:42.191Z,2.60
2017-12-16T23:17:09.947Z,2.60
2017-12-16T23:19:37.572Z,2.60
2017-12-16T23:22:05.129Z,2.70
2017-12-16T23:24:32.706Z,2.60
2017-12-16T23:27:00.274Z,2.60
2017-12-16T23:29:27.865Z,2.60
2017-12-16T23:31:56.199Z,2.70
2017-12-16T23:34:23.767Z,2.70
2017-12-16T23:36:51.367Z,2.70
2017-12-16T23:39:19.779Z,2.60
2017-12-16T23:41:47.479Z,2.60
2017-12-16T23:44:15.048Z,2.70
2017-12-16T23:46:42.657Z,2.70
2017-12-16T23:49:10.227Z,2.70
2017-12-16T23:51:37.786Z,2.70
2017-12-16T23:54:05.432Z,2.70
2017-12-16T23:56:33.003Z,2.70
2017-12-16T23:59:00.615Z,2.80
